Time,TemperatureF,DewpointF,PressureIn,WindDirection,WindDirectionDegrees,WindSpeedMPH,WindSpeedGustMPH,Humidity,HourlyPrecipIn,Conditions,Clouds,dailyrainin,SoftwareType,DateUTC
2013-05-04 00:02:00,62.6,47.0,30.08,East,85,0.0,-999.0,57,-99.99,,,0.00,weatherlink.com 1.10,2013-05-04 04:02:00,
2013-05-04 00:17:00,63.0,47.0,30.08,ESE,119,3.0,-999.0,57,-99.99,,,0.00,weatherlink.com 1.10,2013-05-04 04:17:00,
2013-05-04 00:32:00,62.9,47.0,30.08,SE,129,0.0,-999.0,57,-99.99,,,0.00,weatherlink.com 1.10,2013-05-04 04:32:00,
2013-05-04 00:47:00,62.6,47.0,30.08,East,101,0.0,-999.0,58,-99.99,,,0.00,weatherlink.com 1.10,2013-05-04 04:47:00,
2013-05-04 01:02:00,62.4,48.0,30.09,ESE,104,0.0,-999.0,59,-99.99,,,0.00,weatherlink.com 1.10,2013-05-04 05:02:00,
2013-05-04 01:17:00,62.2,47.0,30.08,ESE,108,0.0,-999.0,59,-99.99,,,0.00,weatherlink.com 1.10,2013-05-04 05:17:00,
2013-05-04 01:32:00,62.1,48.0,30.08,East,98,4.0,-999.0,60,-99.99,,,0.00,weatherlink.com 1.10,2013-05-04 05:32:00,
2013-05-04 01:47:00,61.9,48.0,30.09,ENE,76,2.0,-999.0,60,-99.99,,,0.00,weatherlink.com 1.10,2013-05-04 05:47:00,
2013-05-04 02:02:00,61.8,48.0,30.08,SSE,161,0.0,-999.0,60,-99.99,,,0.00,weatherlink.com 1.10,2013-05-04 06:02:00,
2013-05-04 02:17:00,61.4,48.0,30.08,SE,126,0.0,-999.0,61,-99.99,,,0.00,weatherlink.com 1.10,2013-05-04 06:17:00,
2013-05-04 02:32:00,60.9,48.0,30.08,East,92,1.0,-999.0,62,-99.99,,,0.00,weatherlink.com 1.10,2013-05-04 06:32:00,
2013-05-04 02:47:00,60.4,48.0,30.08,ENE,69,0.0,-999.0,63,-99.99,,,0.00,weatherlink.com 1.10,2013-05-04 06:47:00,
2013-05-04 03:02:00,59.9,48.0,30.08,SSE,161,1.0,-999.0,64,-99.99,,,0.00,weatherlink.com 1.10,2013-05-04 07:02:00,
2013-05-04 03:17:00,59.4,48.0,30.08,East,84,0.0,-999.0,65,-99.99,,,0.00,weatherlink.com 1.10,2013-05-04 07:17:00,
2013-05-04 03:32:00,58.9,47.0,30.09,ESE,107,0.0,-999.0,66,-99.99,,,0.00,weatherlink.com 1.10,2013-05-04 07:32:00,
2013-05-04 03:47:00,58.4,47.0,30.09,East,98,0.0,-999.0,67,-99.99,,,0.00,weatherlink.com 1.10,2013-05-04 07:47:00,
2013-05-04 04:02:00,57.9,47.0,30.09,ESE,111,0.0,-999.0,68,-99.99,,,0.00,weatherlink.com 1.10,2013-05-04 08:02:00,
2013-05-04 04:17:00,57.6,47.0,30.09,East,93,0.0,-999.0,68,-99.99,,,0.00,weatherlink.com 1.10,2013-05-04 08:17:00,
2013-05-04 04:32:00,57.3,47.0,30.09,ESE,107,0.0,-999.0,68,-99.99,,,0.00,weatherlink.com 1.10,2013-05-04 08:32:00,
2013-05-04 04:47:00,57.1,47.0,30.09,ESE,104,0.0,-999.0,69,-99.99,,,0.00,weatherlink.com 1.10,2013-05-04 08:47:00,
2013-05-04 05:02:00,57.0,47.0,30.09,SE,134,0.0,-999.0,69,-99.99,,,0.00,weatherlink.com 1.10,2013-05-04 09:02:00,
2013-05-04 05:17:00,56.8,47.0,30.10,ESE,107,0.0,-999.0,70,-99.99,,,0.00,weatherlink.com 1.10,2013-05-04 09:17:00,
2013-05-04 05:32:00,56.5,47.0,30.10,East,100,0.0,-999.0,70,-99.99,,,0.00,weatherlink.com 1.10,2013-05-04 09:32:00,
2013-05-04 05:47:00,56.2,47.0,30.10,East,100,0.0,-999.0,70,-99.99,,,0.00,weatherlink.com 1.10,2013-05-04 09:47:00,
2013-05-04 06:02:00,56.0,47.0,30.10,ESE,105,0.0,-999.0,71,-99.99,,,0.00,weatherlink.com 1.10,2013-05-04 10:02:00,
2013-05-04 06:17:00,55.8,47.0,30.10,ESE,105,0.0,-999.0,71,-99.99,,,0.00,weatherlink.com 1.10,2013-05-04 10:17:00,
2013-05-04 06:32:00,55.8,47.0,30.10,ESE,111,0.0,-999.0,71,-99.99,,,0.00,weatherlink.com 1.10,2013-05-04 10:32:00,
2013-05-04 06:47:00,55.6,47.0,30.11,East,95,0.0,-999.0,72,-99.99,,,0.00,weatherlink.com 1.10,2013-05-04 10:47:00,
2013-05-04 07:02:00,55.6,47.0,30.11,ESE,103,0.0,-999.0,73,-99.99,,,0.00,weatherlink.com 1.10,2013-05-04 11:02:00,
2013-05-04 07:17:00,56.4,47.0,30.11,ESE,104,0.0,-999.0,72,-99.99,,,0.00,weatherlink.com 1.10,2013-05-04 11:17:00,
2013-05-04 07:32:00,57.4,48.0,30.11,ESE,120,0.0,-999.0,70,-99.99,,,0.00,weatherlink.com 1.10,2013-05-04 11:32:00,
2013-05-04 07:47:00,58.5,49.0,30.11,ESE,122,0.0,-999.0,70,-99.99,,,0.00,weatherlink.com 1.10,2013-05-04 11:47:00,
2013-05-04 08:02:00,59.7,49.0,30.11,SE,124,0.0,-999.0,68,-99.99,,,0.00,weatherlink.com 1.10,2013-05-04 12:02:00,
2013-05-04 08:17:00,60.4,49.0,30.12,SE,146,0.0,-999.0,66,-99.99,,,0.00,weatherlink.com 1.10,2013-05-04 12:17:00,
2013-05-04 08:32:00,60.4,49.0,30.12,SSE,159,0.0,-999.0,66,-99.99,,,0.00,weatherlink.com 1.10,2013-05-04 12:32:00,
2013-05-04 08:47:00,61.3,49.0,30.12,SE,142,1.0,-999.0,64,-99.99,,,0.00,weatherlink.com 1.10,2013-05-04 12:47:00,
2013-05-04 09:02:00,61.4,49.0,30.12,ESE,121,0.0,-999.0,63,-99.99,,,0.00,weatherlink.com 1.10,2013-05-04 13:02:00,
2013-05-04 09:17:00,62.7,49.0,30.12,SE,126,0.0,-999.0,61,-99.99,,,0.00,weatherlink.com 1.10,2013-05-04 13:17:00,
2013-05-04 09:32:00,62.9,48.0,30.12,SE,146,0.0,-999.0,59,-99.99,,,0.00,weatherlink.com 1.10,2013-05-04 13:32:00,
2013-05-04 09:47:00,63.3,47.0,30.12,ESE,110,0.0,-999.0,56,-99.99,,,0.00,weatherlink.com 1.10,2013-05-04 13:47:00,
2013-05-04 10:02:00,64.0,47.0,30.12,East,90,0.0,-999.0,55,-99.99,,,0.00,weatherlink.com 1.10,2013-05-04 14:02:00,
2013-05-04 10:17:00,64.9,47.0,30.12,ESE,114,0.0,-999.0,53,-99.99,,,0.00,weatherlink.com 1.10,2013-05-04 14:17:00,
2013-05-04 10:32:00,64.8,47.0,30.12,SSE,159,0.0,-999.0,53,-99.99,,,0.00,weatherlink.com 1.10,2013-05-04 14:32:00,
2013-05-04 10:47:00,65.1,47.0,30.12,East,79,0.0,-999.0,52,-99.99,,,0.00,weatherlink.com 1.10,2013-05-04 14:47:00,
2013-05-04 11:02:00,65.8,48.0,30.12,ESE,109,0.0,-999.0,52,-99.99,,,0.00,weatherlink.com 1.10,2013-05-04 15:02:00,
2013-05-04 11:17:00,65.9,48.0,30.12,SSE,150,0.0,-999.0,52,-99.99,,,0.00,weatherlink.com 1.10,2013-05-04 15:17:00,
2013-05-04 11:32:00,66.6,47.0,30.12,ESE,119,5.0,-999.0,50,-99.99,,,0.00,weatherlink.com 1.10,2013-05-04 15:32:00,
2013-05-04 11:47:00,66.3,47.0,30.12,NNE,29,0.0,-999.0,50,-99.99,,,0.00,weatherlink.com 1.10,2013-05-04 15:47:00,
2013-05-04 12:02:00,67.0,46.0,30.12,East,98,0.0,-999.0,48,-99.99,,,0.00,weatherlink.com 1.10,2013-05-04 16:02:00,
2013-05-04 12:17:00,66.8,46.0,30.11,ESE,104,4.0,-999.0,47,-99.99,,,0.00,weatherlink.com 1.10,2013-05-04 16:17:00,
2013-05-04 12:32:00,66.0,46.0,30.11,ESE,105,2.0,-999.0,49,-99.99,,,0.00,weatherlink.com 1.10,2013-05-04 16:32:00,
2013-05-04 12:47:00,65.8,46.0,30.11,East,95,6.0,-999.0,49,-99.99,,,0.00,weatherlink.com 1.10,2013-05-04 16:47:00,
2013-05-04 13:02:00,66.1,46.0,30.11,ESE,117,2.0,-999.0,49,-99.99,,,0.00,weatherlink.com 1.10,2013-05-04 17:02:00,
2013-05-04 13:17:00,66.7,46.0,30.11,SSE,150,0.0,-999.0,47,-99.99,,,0.00,weatherlink.com 1.10,2013-05-04 17:17:00,
2013-05-04 13:32:00,66.5,45.0,30.12,ESE,113,0.0,-999.0,46,-99.99,,,0.00,weatherlink.com 1.10,2013-05-04 17:32:00,
2013-05-04 13:47:00,66.6,44.0,30.11,East,80,0.0,-999.0,44,-99.99,,,0.00,weatherlink.com 1.10,2013-05-04 17:47:00,
2013-05-04 14:02:00,66.5,43.0,30.10,ENE,74,5.0,-999.0,43,-99.99,,,0.00,weatherlink.com 1.10,2013-05-04 18:02:00,
2013-05-04 14:17:00,67.3,43.0,30.10,East,82,2.0,-999.0,42,-99.99,,,0.00,weatherlink.com 1.10,2013-05-04 18:17:00,
2013-05-04 14:32:00,67.6,41.0,30.10,SE,132,4.0,-999.0,38,-99.99,,,0.00,weatherlink.com 1.10,2013-05-04 18:32:00,
2013-05-04 14:47:00,67.4,40.0,30.09,SE,124,3.0,-999.0,37,-99.99,,,0.00,weatherlink.com 1.10,2013-05-04 18:47:00,
2013-05-04 15:02:00,68.0,41.0,30.09,ESE,107,0.0,-999.0,38,-99.99,,,0.00,weatherlink.com 1.10,2013-05-04 19:02:00,
2013-05-04 15:17:00,68.7,41.0,30.09,SE,145,0.0,-999.0,36,-99.99,,,0.00,weatherlink.com 1.10,2013-05-04 19:17:00,
2013-05-04 15:32:00,68.9,42.0,30.08,ESE,105,3.0,-999.0,38,-99.99,,,0.00,weatherlink.com 1.10,2013-05-04 19:32:00,
2013-05-04 15:47:00,68.2,42.0,30.08,NNE,19,0.0,-999.0,39,-99.99,,,0.00,weatherlink.com 1.10,2013-05-04 19:47:00,
2013-05-04 16:02:00,68.5,42.0,30.08,NE,56,3.0,-999.0,39,-99.99,,,0.00,weatherlink.com 1.10,2013-05-04 20:02:00,
2013-05-04 16:17:00,68.6,43.0,30.08,SE,133,0.0,-999.0,40,-99.99,,,0.00,weatherlink.com 1.10,2013-05-04 20:17:00,
2013-05-04 16:32:00,69.2,43.0,30.07,East,95,2.0,-999.0,39,-99.99,,,0.00,weatherlink.com 1.10,2013-05-04 20:32:00,
2013-05-04 16:47:00,69.7,42.0,30.07,SE,128,2.0,-999.0,37,-99.99,,,0.00,weatherlink.com 1.10,2013-05-04 20:47:00,
2013-05-04 17:02:00,69.4,42.0,30.07,NE,53,6.0,-999.0,37,-99.99,,,0.00,weatherlink.com 1.10,2013-05-04 21:02:00,
2013-05-04 17:17:00,69.3,42.0,30.07,ENE,57,0.0,-999.0,38,-99.99,,,0.00,weatherlink.com 1.10,2013-05-04 21:17:00,
2013-05-04 17:32:00,69.1,42.0,30.07,ESE,115,2.0,-999.0,38,-99.99,,,0.00,weatherlink.com 1.10,2013-05-04 21:32:00,
2013-05-04 17:47:00,69.5,43.0,30.07,ENE,75,0.0,-999.0,38,-99.99,,,0.00,weatherlink.com 1.10,2013-05-04 21:47:00,
2013-05-04 18:02:00,69.8,43.0,30.07,ESE,119,3.0,-999.0,38,-99.99,,,0.00,weatherlink.com 1.10,2013-05-04 22:02:00,
2013-05-04 18:17:00,69.4,42.0,30.07,ESE,107,2.0,-999.0,37,-99.99,,,0.00,weatherlink.com 1.10,2013-05-04 22:17:00,
2013-05-04 18:32:00,69.0,42.0,30.07,ESE,108,1.0,-999.0,38,-99.99,,,0.00,weatherlink.com 1.10,2013-05-04 22:32:00,
2013-05-04 18:47:00,69.2,42.0,30.07,SE,125,0.0,-999.0,37,-99.99,,,0.00,weatherlink.com 1.10,2013-05-04 22:47:00,
2013-05-04 19:02:00,69.2,42.0,30.06,ENE,78,0.0,-999.0,38,-99.99,,,0.00,weatherlink.com 1.10,2013-05-04 23:02:00,
2013-05-04 19:17:00,69.0,43.0,30.06,East,95,0.0,-999.0,39,-99.99,,,0.00,weatherlink.com 1.10,2013-05-04 23:17:00,
2013-05-04 19:32:00,68.7,42.0,30.06,East,86,4.0,-999.0,38,-99.99,,,0.00,weatherlink.com 1.10,2013-05-04 23:32:00,
2013-05-04 19:47:00,68.1,42.0,30.07,SE,133,0.0,-999.0,39,-99.99,,,0.00,weatherlink.com 1.10,2013-05-04 23:47:00,
2013-05-04 20:02:00,67.6,42.0,30.07,ESE,120,2.0,-999.0,40,-99.99,,,0.00,weatherlink.com 1.10,2013-05-05 00:02:00,
2013-05-04 20:17:00,67.1,42.0,30.07,East,101,1.0,-999.0,41,-99.99,,,0.00,weatherlink.com 1.10,2013-05-05 00:17:00,
2013-05-04 20:32:00,66.2,42.0,30.07,East,96,0.0,-999.0,42,-99.99,,,0.00,weatherlink.com 1.10,2013-05-05 00:32:00,
2013-05-04 20:47:00,65.4,42.0,30.07,East,82,0.0,-999.0,43,-99.99,,,0.00,weatherlink.com 1.10,2013-05-05 00:47:00,
2013-05-04 21:02:00,64.6,43.0,30.07,East,99,0.0,-999.0,45,-99.99,,,0.00,weatherlink.com 1.10,2013-05-05 01:02:00,
2013-05-04 21:17:00,63.6,42.0,30.08,East,96,0.0,-999.0,46,-99.99,,,0.00,weatherlink.com 1.10,2013-05-05 01:17:00,
2013-05-04 21:32:00,63.0,43.0,30.08,ESE,118,0.0,-999.0,48,-99.99,,,0.00,weatherlink.com 1.10,2013-05-05 01:32:00,
2013-05-04 21:47:00,62.3,43.0,30.09,ESE,118,0.0,-999.0,49,-99.99,,,0.00,weatherlink.com 1.10,2013-05-05 01:47:00,
2013-05-04 22:02:00,62.0,42.0,30.09,SE,140,0.0,-999.0,49,-99.99,,,0.00,weatherlink.com 1.10,2013-05-05 02:02:00,
2013-05-04 22:17:00,61.5,43.0,30.09,East,80,0.0,-999.0,51,-99.99,,,0.00,weatherlink.com 1.10,2013-05-05 02:17:00,
2013-05-04 22:32:00,61.2,43.0,30.09,East,100,0.0,-999.0,51,-99.99,,,0.00,weatherlink.com 1.10,2013-05-05 02:32:00,
2013-05-04 22:47:00,60.8,43.0,30.09,ESE,117,0.0,-999.0,53,-99.99,,,0.00,weatherlink.com 1.10,2013-05-05 02:47:00,
2013-05-04 23:02:00,60.7,44.0,30.09,East,89,0.0,-999.0,54,-99.99,,,0.00,weatherlink.com 1.10,2013-05-05 03:02:00,
2013-05-04 23:17:00,60.6,44.0,30.09,East,88,0.0,-999.0,54,-99.99,,,0.00,weatherlink.com 1.10,2013-05-05 03:17:00,
2013-05-04 23:32:00,60.6,43.0,30.10,East,84,0.0,-999.0,53,-99.99,,,0.00,weatherlink.com 1.10,2013-05-05 03:32:00,
2013-05-04 23:47:00,60.5,43.0,30.09,SE,128,0.0,-999.0,53,-99.99,,,0.00,weatherlink.com 1.10,2013-05-05 03:47:00,